Nearby METAR Reports

 

ENCN - Kristiansand/Kje, Norway
Distance from station: N 17km
Uppdaterad: 06/02/2023 00:20
Genommulet
Genommulet
 Vind från NO
Vind: NO 9 km/h
Temperatur: 0°C
Wind Chill: -3°C
Daggpunkt: -1°C
Luftfuktighet: 93%
Barometer: 1039 hPa
Clouds: Genommulet
Visibility: 10 km
Cloud details: Genommulet 3048 m
2023/02/05 23:20 ENCN 052320Z AUTO 04005KT 9999 OVC100/// M00/M01 Q1039
EKSN - Sindal Airport, Denmark
Distance from station: OSO 145km
Uppdaterad: 30/12/2021 14:50
NOT Current
Mist, Övervägande molnigt
Mist, Övervägande molnigt
 Vind från SV
Vind: SV 26 km/h
Temperatur: 7°C
Wind Chill: 3°C
Daggpunkt: 7°C
Luftfuktighet: 100%
Barometer: 999 hPa
Summering: Mist
Clouds: Övervägande molnigt
Visibility: 5 km
Cloud details: Delvis molnigt 183 m
Övervägande molnigt 244 m
2021/12/30 13:50 EKSN 301350Z 23014KT 4500 BR SCT006 BKN008 07/07 Q0999
 
EKYT - Alborg, Denmark
Distance from station: SO 153km
Uppdaterad: 06/02/2023 00:31
Övervägande molnigt
Övervägande molnigt
 Vind från VSV
Vind: VSV 6 km/h
Temperatur: -1°C
Daggpunkt: -1°C
Luftfuktighet: 100%
Barometer: 1039 hPa
Clouds: Övervägande molnigt
Visibility: 7 km
Cloud details: Övervägande molnigt 5791 m
Övervägande molnigt 6401 m
2023/02/05 23:31 EKYT 052331Z AUTO 25003KT 7000 BKN190/// BKN210/// M01/M01 Q1039
ENSN - Skien/Geiterygge, Norway
Distance from station: NO 153km
Uppdaterad: 09/11/2015 09:50
NOT Current
Klart
Klart
 Vind från SSV
Vind: SSV 19 km/h, Vindby: 41 km/h
Temperatur: 7°C
Wind Chill: 4°C
Daggpunkt: 3°C
Luftfuktighet: 76%
Barometer: 1000 hPa
Summering: Klart
Visibility: greater than 10 km
2015/11/09 08:50 ENSN 090850Z 20010G22KT 150V240 CAVOK 07/03 Q1000
 
ENZV - Stavanger/Sola(A, Norway
Distance from station: NV 166km
Uppdaterad: 06/02/2023 00:20
Mist, Genommulet
Mist, Genommulet
 Vind från SO
Vind: SO 7 km/h
Temperatur: 5°C
Wind Chill: 3°C
Daggpunkt: 4°C
Luftfuktighet: 93%
Barometer: 1038 hPa
Summering: Mist
Clouds: Genommulet
Visibility: 7 km
Cloud details: Few Clouds 183 m
Genommulet 3658 m
2023/02/05 23:20 ENZV 052320Z AUTO 14004KT 7000 BR FEW006/// OVC120/// 05/04 Q1038
ENNO - Notodden, Norway
Distance from station: NNO 182km
Uppdaterad: 05/02/2023 16:20
NOT Current
Klart
Klart
 Vind från calm
Vind: Vindstilla
Temperatur: -3°C
Daggpunkt: -4°C
Luftfuktighet: 93%
Barometer: 1036 hPa
Summering: Klart
Visibility: greater than 10 km
2023/02/05 15:20 ENNO 051520Z 00000KT CAVOK M03/M04 Q1036
 
ENTO - Torp (civ/Nor-Af, Norway
Distance from station: NO 183km
Uppdaterad: 06/02/2023 00:20
Few Clouds
Few Clouds
 Vind från SSV
Vind: SSV 4 km/h
Temperatur: -1°C
Daggpunkt: -1°C
Luftfuktighet: 100%
Barometer: 1037 hPa
Clouds: Few Clouds
Visibility: 10 km
Cloud details: Few Clouds 4572 m
2023/02/05 23:20 ENTO 052320Z AUTO 21002KT 9999 FEW150/// M01/M01 Q1037
EKKA - Karup (dan-Afb), Denmark
Distance from station: SSO 209km
Uppdaterad: 06/02/2023 00:34
Övervägande molnigt
Övervägande molnigt
 Vind från SV
Vind: SV 4 km/h
Temperatur: 1°C
Daggpunkt: 1°C
Luftfuktighet: 100%
Barometer: 1039 hPa
Clouds: Övervägande molnigt
Visibility: 8 km
Cloud details: Few Clouds 4267 m
Övervägande molnigt 6401 m
2023/02/05 23:34 EKKA 052334Z AUTO 23002KT 8000 FEW140/// BKN210/// 01/01 Q1039
 
ENHD - Haugesund/Karmoy, Norway
Distance from station: NV 216km
Uppdaterad: 06/02/2023 00:20
Mist, Genommulet
Mist, Genommulet
 Vind från SSO
Vind: SSO 7 km/h
Temperatur: 5°C
Wind Chill: 3°C
Daggpunkt: 3°C
Luftfuktighet: 87%
Barometer: 1038 hPa
Summering: Mist
Clouds: Genommulet
Visibility: 4 km
Cloud details: Genommulet 3658 m
2023/02/05 23:20 ENHD 052320Z AUTO 15004KT 4200 BR OVC120/// 05/03 Q1038
ENRY - Rygge (nor-Afb), Norway
Distance from station: NO 216km
Uppdaterad: 06/02/2023 00:20
Few Clouds
Few Clouds
 Vind från OSO
Vind: OSO 6 km/h
Temperatur: -4°C
Daggpunkt: -5°C
Luftfuktighet: 93%
Barometer: 1038 hPa
Clouds: Few Clouds
Visibility: 10 km
Cloud details: Few Clouds 30 m
2023/02/05 23:20 ENRY 052320Z AUTO 12003KT 9999NDV FEW001/// M04/M05 Q1038
 
ESGP - Goteborg/Save (a, Sweden
Distance from station: O 230km
Uppdaterad: 06/02/2023 00:20
Freezing fog, Genommulet
Freezing fog, Genommulet
 Vind från calm
Vind: Vindstilla
Temperatur: -1°C
Daggpunkt: -2°C
Luftfuktighet: 93%
Barometer: 1038 hPa
Summering: Freezing Fog
Clouds: Genommulet
Visibility: 0 km
Cloud details: Genommulet 30 m
2023/02/05 23:20 ESGP 052320Z AUTO 00000KT 0150 R01/0500N R19/0550N FZFG OVC001/// M01/M02 Q1038
EKVJ - Stauning Airport, Denmark
Distance from station: S 233km
Uppdaterad: 03/02/2023 13:50
NOT Current
Övervägande molnigt
Övervägande molnigt
 Vind från VNV
Vind: VNV 33 km/h
Temperatur: 7°C
Wind Chill: 3°C
Daggpunkt: 5°C
Luftfuktighet: 87%
Barometer: 1010 hPa
Clouds: Övervägande molnigt
Visibility: 7 km
Cloud details: Delvis molnigt 610 m
Övervägande molnigt 914 m
2023/02/03 12:50 EKVJ 031250Z 29018KT 7000 SCT020 BKN030 07/05 Q1010
 
ENSO - Stord/Soerstokke, Norway
Distance from station: NV 246km
Uppdaterad: 05/02/2023 19:50
NOT Current
Övervägande molnigt
Övervägande molnigt
 Vind från SV
Vind: SV 11 km/h
Temperatur: 6°C
Wind Chill: 4°C
Daggpunkt: 6°C
Luftfuktighet: 100%
Barometer: 1039 hPa
Clouds: Övervägande molnigt
Visibility: 10 km
Cloud details: Few Clouds 366 m
Delvis molnigt 549 m
Övervägande molnigt 2134 m
2023/02/05 18:50 ENSO 051850Z 23006KT 9999 FEW012 SCT018 BKN070 06/06 Q1039
EKAH - Tirstrup (civ/Mi, Denmark
Distance from station: SO 252km
Uppdaterad: 06/02/2023 00:20
Delvis molnigt
Delvis molnigt
 Vind från V
Vind: V 7 km/h
Temperatur: -1°C
Wind Chill: -4°C
Daggpunkt: -2°C
Luftfuktighet: 93%
Barometer: 1039 hPa
Clouds: Delvis molnigt
Visibility: 10 km
Cloud details: Few Clouds 5182 m
Delvis molnigt 6706 m
2023/02/05 23:20 EKAH 052320Z AUTO 27004KT 9999 FEW170/// SCT220/// M01/M02 Q1039
 
ESGT - Trollhattan (pvt, Sweden
Distance from station: O 255km
Uppdaterad: 06/02/2023 00:20
Freezing fog, Genommulet
Freezing fog, Genommulet
 Vind från VSV
Vind: VSV 6 km/h
Temperatur: -3°C
Daggpunkt: -3°C
Luftfuktighet: 100%
Barometer: 1038 hPa
Summering: Freezing Fog
Clouds: Genommulet
Visibility: 0 km
Cloud details: Genommulet 61 m
2023/02/05 23:20 ESGT 052320Z AUTO 25003KT 0150 R15///// R33///// FZFG VV002 M03/M03 Q1038
ESGG - Goteborg/Landvet, Sweden
Distance from station: O 257km
Uppdaterad: 06/02/2023 00:20
Freezing fog, Genommulet
Freezing fog, Genommulet
 Vind från varies
Vind: varies 4 km/h
Temperatur: -2°C
Daggpunkt: -3°C
Luftfuktighet: 93%
Barometer: 1037 hPa
Summering: Freezing Fog
Clouds: Genommulet
Visibility: 0 km
Cloud details: Genommulet 30 m
2023/02/05 23:20 ESGG 052320Z VRB02KT 0100 R03/0600N R21/0350N FZFG VV001 M02/M03 Q1037
 
EKBI - Billund Airport, Denmark
Distance from station: SSO 269km
Uppdaterad: 06/02/2023 00:20
Övervägande molnigt
Övervägande molnigt
 Vind från SSV
Vind: SSV 2 km/h
Temperatur: -2°C
Daggpunkt: -2°C
Luftfuktighet: 100%
Barometer: 1040 hPa
Clouds: Övervägande molnigt
Visibility: 10 km
Cloud details: Few Clouds 305 m
Övervägande molnigt 4877 m
2023/02/05 23:20 EKBI 052320Z AUTO 20001KT 9999 FEW010/// BKN160/// M02/M02 Q1040
EKHN - Horns Rev B Heli, Denmark
Distance from station: S 274km
Uppdaterad: 09/08/2016 14:20
NOT Current
Few Clouds
Few Clouds
 Vind från VNV
Vind: VNV 50 km/h, Vindby: 72 km/h
Temperatur: 14°C
Daggpunkt: 10°C
Luftfuktighet: 77%
Barometer: 1018 hPa
Clouds: Few Clouds
Visibility: 10 km
Cloud details: Few Clouds 1158 m
Few Clouds 2438 m
2016/08/09 12:20 EKHN 091220Z AUTO 29027G39KT 270V340 9999NDV FEW038/// FEW080/// 14/10 Q1018
 
ESIB - Satenas (swe-Afb, Sweden
Distance from station: O 277km
Uppdaterad: 06/02/2023 00:20
Freezing fog, Genommulet
Freezing fog, Genommulet
 Vind från SV
Vind: SV 7 km/h
Temperatur: -4°C
Wind Chill: -7°C
Daggpunkt: -4°C
Luftfuktighet: 100%
Barometer: 1038 hPa
Summering: Freezing Fog
Clouds: Genommulet
Visibility: 0 km
Cloud details: Genommulet 91 m
2023/02/05 23:20 ESIB 052320Z AUTO 23004KT 0150 R01/0800N R19/0650N FZFG VV003 M04/M04 Q1038
EKHR - Horns Rev B Heli, Denmark
Distance from station: S 282km
Uppdaterad: 04/10/2016 06:20
NOT Current
Klart
Klart
 Vind från O
Vind: O 4 km/h
Temperatur: 11°C
Daggpunkt: -49°C
Luftfuktighet: 0%
Barometer: 1038 hPa
Clouds: Klart
Visibility: 10 km
2016/10/04 04:20 EKHR 040420Z AUTO 08002KT 9999NDV NCD 11/M49 Q1038